Dades meteomassalio
Diari Summary for Octubre 7, 2017 Units:  Metric    English   Both
« Previous Day
Next Day »
Diari Semanal Mensual Anual Personalitzat
  Maxima: Minima: Mijana:
Temperatura: -17.8 °C -15.3 °C -10.1 °C
Rosada: -17.8 °C -17.8 °C -14.7 °C
Humitat: Humidity % 36 % 58 %
Velocitat del vent: 0 km/h 0 km/h 10.3 km/h
Racha vent: 0 km/h - -
Vent:- - South
Pressio: 0 hPa 34625.2 hPa -
Pluja: 0 mm    
Historical Graphs
 
 
Tabular Data for Octubre 7, 2017
Time Temperature Dew Point Pressure Wind Wind Speed Wind Gust Humidity Rainfall Rate (Hourly) solar Conditions
-17.8 °C -17.8 °C 0 hPa Calm     Humidity % 0 mm SolarRadiationWatts/m^2 W/m2 Conditions
00:04 -9.1 °C -13.7 °C 34645.6 hPa SSW 32.8 km/h 32.8 km/h 58 % 0 mm 0.0 W/m2 CLR
00:08 -9.1 °C -13.7 °C 34659.1 hPa SSW 31.1 km/h 31.1 km/h 58 % 0 mm 0.0 W/m2 CLR
00:14 -9.1 °C -13.8 °C 34659.1 hPa South 29.8 km/h 29.8 km/h 57 % 0 mm 0.0 W/m2 CLR
00:19 -9.1 °C -13.8 °C 34659.1 hPa SSW 35.7 km/h 35.7 km/h 57 % 0 mm 0.0 W/m2 CLR
00:24 -9.1 °C -13.7 °C 34659.1 hPa South 29.8 km/h 29.8 km/h 58 % 0 mm 0.0 W/m2 CLR
00:29 -9.1 °C -13.7 °C 34659.1 hPa South 20.9 km/h 20.9 km/h 58 % 0 mm 0.0 W/m2 CLR
00:34 -9.1 °C -13.6 °C 34659.1 hPa South 29.8 km/h 29.8 km/h 59 % 0 mm 0.0 W/m2 CLR
00:39 -9.4 °C -13.8 °C 34659.1 hPa South 11.9 km/h 11.9 km/h 59 % 0 mm 0.0 W/m2 CLR
00:44 -9.4 °C -13.7 °C 34659.1 hPa South 23.8 km/h 23.8 km/h 60 % 0 mm 0.0 W/m2 CLR
00:49 -9.4 °C -13.7 °C 34659.1 hPa South 23.8 km/h 23.8 km/h 60 % 0 mm 0.0 W/m2 CLR
00:54 -9.4 °C -13.7 °C 34659.1 hPa South 17.9 km/h 17.9 km/h 60 % 0 mm 0.0 W/m2 CLR
00:59 -9.8 °C -14 °C 34669.3 hPa South 18.2 km/h 18.2 km/h 60 % 0 mm 0.0 W/m2 CLR
01:04 -9.8 °C -14 °C 34669.3 hPa South 23.8 km/h 23.8 km/h 60 % 0 mm 0.0 W/m2 CLR
01:09 -9.8 °C -14.2 °C 34669.3 hPa South 20.9 km/h 20.9 km/h 59 % 0 mm 0.0 W/m2 CLR
01:14 -9.8 °C -14.2 °C 34669.3 hPa SSW 23.8 km/h 23.8 km/h 59 % 0 mm 0.0 W/m2 CLR
01:19 -9.8 °C -14.2 °C 34669.3 hPa SSE 15 km/h 15 km/h 59 % 0 mm 0.0 W/m2 CLR
01:24 -9.8 °C -14.2 °C 34682.8 hPa South 10.3 km/h 10.3 km/h 59 % 0 mm 0.0 W/m2 CLR
01:29 -9.8 °C -14.2 °C 34682.8 hPa SSE 11.9 km/h 11.9 km/h 59 % 0 mm 0.0 W/m2 CLR
01:39 -10.1 °C -14.3 °C 34669.3 hPa South 29.8 km/h 29.8 km/h 60 % 0 mm 0.0 W/m2 CLR
01:44 -10.1 °C -14.4 °C 34669.3 hPa SSW 32.8 km/h 32.8 km/h 59 % 0 mm 0.0 W/m2 CLR
01:49 -10.1 °C -14.4 °C 34669.3 hPa South 26.9 km/h 26.9 km/h 59 % 0 mm 0.0 W/m2 CLR
01:54 -10.4 °C -14.7 °C 34669.3 hPa South 41.7 km/h 41.7 km/h 59 % 0 mm 0.0 W/m2 CLR
01:59 -10.1 °C -14.4 °C 34669.3 hPa SSW 29.8 km/h 29.8 km/h 59 % 0 mm 0.0 W/m2 CLR
02:04 -10.1 °C -14.4 °C 34682.8 hPa SSW 29.8 km/h 29.8 km/h 59 % 0 mm 0.0 W/m2 CLR
02:09 -10.1 °C -14.4 °C 34682.8 hPa SSW 28.5 km/h 28.5 km/h 59 % 0 mm 0.0 W/m2 CLR
02:14 -10.1 °C -14.4 °C 34682.8 hPa South 26.9 km/h 26.9 km/h 59 % 0 mm 0.0 W/m2 CLR
02:19 -10.4 °C -14.9 °C 34682.8 hPa South 20.9 km/h 20.9 km/h 58 % 0 mm 0.0 W/m2 CLR
02:24 -10.4 °C -14.9 °C 34682.8 hPa South 29.8 km/h 29.8 km/h 58 % 0 mm 0.0 W/m2 CLR
02:29 -10.4 °C -14.9 °C 34682.8 hPa South 15.6 km/h 15.6 km/h 58 % 0 mm 0.0 W/m2 CLR
02:34 -10.4 °C -14.9 °C 34682.8 hPa South 17.9 km/h 17.9 km/h 58 % 0 mm 0.0 W/m2 CLR
02:39 -10.4 °C -14.7 °C 34682.8 hPa South 9 km/h 9 km/h 59 % 0 mm 0.0 W/m2 CLR
02:44 -10.7 °C -15.1 °C 34682.8 hPa SSE 26.9 km/h 26.9 km/h 59 % 0 mm 0.0 W/m2 CLR
02:49 -10.7 °C -15.1 °C 34682.8 hPa SSW 10.3 km/h 10.3 km/h 59 % 0 mm 0.0 W/m2 CLR
02:54 -11 °C -15.3 °C 34693 hPa SW 23.8 km/h 23.8 km/h 59 % 0 mm 0.0 W/m2 CLR
02:59 -11 °C -15.3 °C 34682.8 hPa South 9 km/h 9 km/h 59 % 0 mm 0.0 W/m2 CLR
03:04 -11.3 °C -15.6 °C 34682.8 hPa South 15 km/h 15 km/h 59 % 0 mm 0.0 W/m2 CLR
03:09 -11.3 °C -15.6 °C 34682.8 hPa SSE 15.6 km/h 15.6 km/h 59 % 0 mm 0.0 W/m2 CLR
03:14 -11.6 °C -15.8 °C 34682.8 hPa Calm     60 % 0 mm 0.0 W/m2 CLR
03:19 -11.6 °C -15.6 °C 34682.8 hPa SSE 9 km/h   61 % 0 mm 0.0 W/m2 CLR
03:24 -11.9 °C -15.9 °C 34682.8 hPa Calm     61 % 0 mm 0.0 W/m2 CLR
03:29 -12.2 °C -16.2 °C 34682.8 hPa Calm     61 % 0 mm 0.0 W/m2 CLR
03:34 -12.6 °C -16.5 °C 34682.8 hPa Calm     61 % 0 mm 0.0 W/m2 CLR
03:39 -12.6 °C -16.5 °C 34682.8 hPa South 10.3 km/h 10.3 km/h 61 % 0 mm 0.0 W/m2 CLR
03:44 -12.6 °C -16.5 °C 34682.8 hPa South 9 km/h   61 % 0 mm 0.0 W/m2 CLR
03:49 -12.8 °C -16.8 °C 34682.8 hPa South 9 km/h 9 km/h 61 % 0 mm 0.0 W/m2 CLR
03:55 -12.8 °C -16.8 °C 34682.8 hPa Calm     61 % 0 mm 0.0 W/m2 CLR
04:00 -13.2 °C -17.1 °C 34682.8 hPa Calm     61 % 0 mm 0.0 W/m2 CLR
04:05 -13.2 °C -17.1 °C 34682.8 hPa Calm     61 % 0 mm 0.0 W/m2 CLR
04:10 -13.2 °C -17.1 °C 34682.8 hPa Calm     61 % 0 mm 0.0 W/m2 CLR
04:15 -13.4 °C -17.3 °C 34682.8 hPa SSE 6 km/h   62 % 0 mm 0.0 W/m2 CLR
04:20 -13.4 °C -17.1 °C 34682.8 hPa Calm     63 % 0 mm 0.0 W/m2 CLR
04:25 -13.4 °C -17.1 °C 34682.8 hPa Calm     63 % 0 mm 0.0 W/m2 CLR
04:30 -13.4 °C -17.1 °C 34682.8 hPa Calm     63 % 0 mm 0.0 W/m2 CLR
04:35 -13.8 °C -17.3 °C 34682.8 hPa Calm     64 % 0 mm 0.0 W/m2 CLR
04:40 -13.8 °C -17.2 °C 34682.8 hPa Calm     65 % 0 mm 0.0 W/m2 CLR
04:45 -13.8 °C -17.1 °C 34682.8 hPa Calm     66 % 0 mm 0.0 W/m2 CLR
04:50 -13.8 °C -16.9 °C 34682.8 hPa Calm     67 % 0 mm 0.0 W/m2 CLR
04:55 -14.1 °C -17.3 °C 34682.8 hPa Calm     67 % 0 mm 0.0 W/m2 CLR
05:00 -14.1 °C -17.1 °C 34682.8 hPa Calm     68 % 0 mm 0.0 W/m2 CLR
05:05 -14.1 °C -17.1 °C 34682.8 hPa Calm     68 % 0 mm 0.0 W/m2 CLR
05:10 -14.1 °C -17 °C 34682.8 hPa Calm     69 % 0 mm 0.0 W/m2 CLR
05:15 -14.1 °C -17 °C 34682.8 hPa Calm     69 % 0 mm 0.0 W/m2 CLR
05:20 -14.1 °C -17 °C 34693 hPa Calm     69 % 0 mm 0.0 W/m2 CLR
05:25 -14.1 °C -16.9 °C 34693 hPa Calm     70 % 0 mm 0.0 W/m2 CLR
05:30 -14.4 °C -17.1 °C 34693 hPa Calm     71 % 0 mm 0.0 W/m2 CLR
05:35 -14.4 °C -17.1 °C 34693 hPa Calm     71 % 0 mm 0.0 W/m2 CLR
05:45 -14.4 °C -17.1 °C 34703.1 hPa Calm     71 % 0 mm 0.0 W/m2 CLR
05:50 -14.4 °C -17 °C 34703.1 hPa Calm     72 % 0 mm 0.0 W/m2 CLR
05:55 -14.4 °C -17.1 °C 34703.1 hPa Calm     71 % 0 mm 0.0 W/m2 CLR
06:00 -14.7 °C -17.4 °C 34703.1 hPa South 11.9 km/h 11.9 km/h 71 % 0 mm 0.0 W/m2 CLR
06:05 -14.7 °C -17.4 °C 34703.1 hPa South 15 km/h 15 km/h 71 % 0 mm 0.0 W/m2 CLR
06:10 -14.7 °C -17.3 °C 34703.1 hPa South 9 km/h 9 km/h 72 % 0 mm 0.0 W/m2 CLR
06:15 -14.7 °C -17.3 °C 34703.1 hPa Calm     72 % 0 mm 0.0 W/m2 CLR
06:20 -14.7 °C -17.3 °C 34703.1 hPa South 2.6 km/h 3.1 km/h 72 % 0 mm 0.0 W/m2 CLR
06:25 -14.7 °C -17.3 °C 34703.1 hPa SSE 6 km/h 6 km/h 72 % 0 mm 0.0 W/m2 CLR
06:30 -14.7 °C -17.2 °C 34703.1 hPa SSE 12.9 km/h 12.9 km/h 73 % 0 mm 0.0 W/m2 CLR
06:35 -14.7 °C -17.2 °C 34716.7 hPa SSE 12.9 km/h 12.9 km/h 73 % 0 mm 0.0 W/m2 CLR
06:40 -14.7 °C -17.1 °C 34716.7 hPa SSE 11.9 km/h 11.9 km/h 74 % 0 mm 0.0 W/m2 CLR
06:45 -15 °C -17.4 °C 34716.7 hPa SSE 15.6 km/h 15.6 km/h 74 % 0 mm 0.0 W/m2 CLR
06:50 -15 °C -17.4 °C 34716.7 hPa SSE 9 km/h 9 km/h 74 % 0 mm 0.0 W/m2 CLR
06:55 -15 °C -17.4 °C 34716.7 hPa SSE 9 km/h 9 km/h 74 % 0 mm 0.0 W/m2 CLR
07:00 -15 °C -17.4 °C 34716.7 hPa SSE 9 km/h   74 % 0 mm 0.0 W/m2 CLR
07:05 -15 °C -17.4 °C 34716.7 hPa SSE 7.7 km/h 7.7 km/h 74 % 0 mm 0.0 W/m2 CLR
07:10 -15 °C -17.4 °C 34726.8 hPa SSE 9 km/h 9 km/h 74 % 0 mm 0.0 W/m2 CLR
07:15 -15 °C -17.3 °C 34726.8 hPa South 15 km/h 15 km/h 75 % 0 mm 0.0 W/m2 CLR
07:20 -15 °C -17.3 °C 34726.8 hPa South 11.9 km/h 11.9 km/h 75 % 0 mm 0.0 W/m2 CLR
07:25 -15 °C -17.3 °C 34740.4 hPa Calm     75 % 0 mm 0.0 W/m2 CLR
07:30 -15 °C -17.3 °C 34740.4 hPa Calm     75 % 0 mm 0.0 W/m2 CLR
07:35 -15 °C -17.3 °C 34740.4 hPa Calm     75 % 0 mm 0.0 W/m2 CLR
07:37 -15 °C -17.3 °C 34740.4 hPa Calm     75 % 0 mm 0.0 W/m2 CLR
07:42 -15 °C -17.3 °C 34740.4 hPa SE 9 km/h 9 km/h 75 % 0 mm 0.0 W/m2 CLR
07:47 -15 °C -17.3 °C 34740.4 hPa SE 11.9 km/h 11.9 km/h 75 % 0 mm 0.0 W/m2 CLR
07:52 -15.3 °C -17.6 °C 34740.4 hPa SSE 15 km/h 15 km/h 75 % 0 mm 0.0 W/m2 CLR
07:57 -15.3 °C -17.6 °C 34740.4 hPa South 15 km/h 15 km/h 75 % 0 mm 0.0 W/m2 CLR
08:02 -15.3 °C -17.6 °C 34740.4 hPa South 11.9 km/h 11.9 km/h 75 % 0 mm 5.0 W/m2 OVC
08:07 -15.3 °C -17.6 °C 34740.4 hPa South 11.9 km/h 11.9 km/h 75 % 0 mm 7.0 W/m2 BKN
08:12 -15.3 °C -17.7 °C 34740.4 hPa South 9 km/h 9 km/h 74 % 0 mm 9.0 W/m2 BKN
08:13 -15.3 °C -17.7 °C 34740.4 hPa South 9 km/h 9 km/h 74 % 0 mm 9.0 W/m2 BKN
08:18 -15.3 °C -17.7 °C 34740.4 hPa South 10.3 km/h 10.3 km/h 74 % 0 mm 12.0 W/m2 BKN
08:23 -15.3 °C -17.7 °C 34740.4 hPa South 12.9 km/h 12.9 km/h 74 % 0 mm 14.0 W/m2 BKN
08:28 -15.3 °C -17.7 °C 34740.4 hPa SSE 15 km/h 15 km/h 74 % 0 mm 18.0 W/m2 BKN
08:33 -15 °C -17.4 °C 34740.4 hPa SSE 11.9 km/h 11.9 km/h 73 % 0 mm 25.0 W/m2 BKN
08:38 -15 °C -17.4 °C 34750.5 hPa SSE 9 km/h 9 km/h 73 % 0 mm 33.0 W/m2 BKN
08:43 -15 °C -17.4 °C 34750.5 hPa Calm     73 % 0 mm 44.0 W/m2 BKN
08:48 -15 °C -17.7 °C 34760.7 hPa Calm     71 % 0 mm 58.0 W/m2 SCT
08:53 -15 °C -17.8 °C 34760.7 hPa Calm     70 % 0 mm 69.0 W/m2 FEW
08:58 -14.7 °C -17.6 °C 34750.5 hPa Calm     69 % 0 mm 86.0 W/m2 CLR
09:03 -14.7 °C -17.8 °C 34760.7 hPa Calm     67 % 0 mm 84.0 W/m2 FEW
09:08 -14.4 °C -17.7 °C 34760.7 hPa Calm     66 % 0 mm 118.0 W/m2 CLR
09:13 -14.1 °C -17.6 °C 34750.5 hPa Calm     64 % 0 mm 109.0 W/m2 CLR
09:18 -13.8 °C -17.4 °C 34750.5 hPa Calm     63 % 0 mm 93.0 W/m2 CLR
09:23 -13.2 °C -17.1 °C 34760.7 hPa Calm     61 % 0 mm 116.0 W/m2 CLR
09:28 -12.6 °C -16.5 °C 34760.7 hPa Calm     61 % 0 mm 192.0 W/m2 CLR
09:33 -12.2 °C -16.3 °C 34760.7 hPa Calm     60 % 0 mm 209.0 W/m2 CLR
09:38 -11.9 °C -15.9 °C 34760.7 hPa Calm     61 % 0 mm 232.0 W/m2 CLR
09:43 -11.9 °C -16.2 °C 34760.7 hPa Calm     59 % 0 mm 246.0 W/m2 CLR
09:48 -11.6 °C -16.2 °C 34760.7 hPa Calm     57 % 0 mm 260.0 W/m2 CLR
09:53 -11 °C -15.9 °C 34760.7 hPa Calm     55 % 0 mm 274.0 W/m2 CLR
09:58 -11 °C -16 °C 34760.7 hPa Calm     54 % 0 mm 288.0 W/m2 CLR
10:03 -10.7 °C -15.7 °C 34760.7 hPa Calm     54 % 0 mm 306.0 W/m2 CLR
10:08 -10.4 °C -16.1 °C 34760.7 hPa South 23.8 km/h 23.8 km/h 50 % 0 mm 320.0 W/m2 CLR
10:13 -10.1 °C -15.9 °C 34760.7 hPa SSW 23.3 km/h 23.3 km/h 49 % 0 mm 334.0 W/m2 CLR
10:18 -10.1 °C -16.1 °C 34750.5 hPa South 20.9 km/h 20.9 km/h 48 % 0 mm 346.0 W/m2 CLR
10:23 -9.8 °C -15.9 °C 34750.5 hPa South 20.9 km/h 20.9 km/h 47 % 0 mm 364.0 W/m2 CLR
10:28 -9.8 °C -15.8 °C 34760.7 hPa SSW 23.3 km/h 23.3 km/h 48 % 0 mm 376.0 W/m2 CLR
10:33 -9.4 °C -15.7 °C 34750.5 hPa SSE 20.9 km/h 20.9 km/h 47 % 0 mm 390.0 W/m2 CLR
10:38 -9.4 °C -15.5 °C 34750.5 hPa SSE 20.9 km/h 20.9 km/h 48 % 0 mm 401.0 W/m2 CLR
10:44 -9.4 °C -15.7 °C 34750.5 hPa South 26.9 km/h 26.9 km/h 47 % 0 mm 415.0 W/m2 CLR
10:49 -9.4 °C -15.7 °C 34750.5 hPa SSW 23.8 km/h 23.8 km/h 47 % 0 mm 427.0 W/m2 CLR
10:54 -9.1 °C -15.6 °C 34750.5 hPa South 20.9 km/h 20.9 km/h 46 % 0 mm 445.0 W/m2 CLR
10:59 -9.1 °C -15.6 °C 34760.7 hPa South 29.8 km/h 29.8 km/h 46 % 0 mm 457.0 W/m2 CLR
11:04 -9.1 °C -15.6 °C 34750.5 hPa South 15.6 km/h 15.6 km/h 46 % 0 mm 466.0 W/m2 CLR
11:09 -9.1 °C -15.6 °C 34750.5 hPa SW 17.9 km/h 17.9 km/h 46 % 0 mm 478.0 W/m2 CLR
11:14 -8.8 °C -15.1 °C 34750.5 hPa SW 26.9 km/h 26.9 km/h 47 % 0 mm 490.0 W/m2 CLR
11:19 -8.8 °C -15.3 °C 34750.5 hPa SSE 23.8 km/h 23.8 km/h 46 % 0 mm 503.0 W/m2 CLR
11:24 -8.8 °C -15.4 °C 34750.5 hPa South 29.8 km/h 29.8 km/h 45 % 0 mm 513.0 W/m2 CLR
11:29 -8.8 °C -15.3 °C 34750.5 hPa South 20.9 km/h 20.9 km/h 46 % 0 mm 524.0 W/m2 CLR
11:34 -8.5 °C -15 °C 34750.5 hPa SW 23.8 km/h 23.8 km/h 46 % 0 mm 538.0 W/m2 CLR
11:39 -8.5 °C -15.2 °C 34750.5 hPa SW 20.9 km/h 20.9 km/h 45 % 0 mm 545.0 W/m2 CLR
11:44 -8.2 °C -14.9 °C 34750.5 hPa SW 15 km/h 15 km/h 45 % 0 mm 554.0 W/m2 CLR
11:49 -8.2 °C -14.7 °C 34750.5 hPa SW 20.9 km/h 20.9 km/h 46 % 0 mm 563.0 W/m2 CLR
11:54 -8.2 °C -14.9 °C 34750.5 hPa SSW 23.8 km/h 23.8 km/h 45 % 0 mm 573.0 W/m2 CLR
11:59 -7.9 °C -14.8 °C 34750.5 hPa Calm     44 % 0 mm 582.0 W/m2 CLR
12:04 -7.9 °C -14.6 °C 34750.5 hPa SW 11.9 km/h 11.9 km/h 45 % 0 mm 592.0 W/m2 CLR
12:09 -7.6 °C -14.3 °C 34750.5 hPa West 23.3 km/h 23.3 km/h 45 % 0 mm 599.0 W/m2 CLR
12:14 -7.6 °C -14.2 °C 34750.5 hPa WSW 12.9 km/h 12.9 km/h 46 % 0 mm 606.0 W/m2 CLR
12:19 -7.6 °C -14.3 °C 34750.5 hPa WSW 11.9 km/h 11.9 km/h 45 % 0 mm 619.0 W/m2 CLR
12:24 -7.6 °C -14.3 °C 34740.4 hPa WSW 9 km/h 9 km/h 45 % 0 mm 626.0 W/m2 CLR
12:29 -7.3 °C -14.2 °C 34740.4 hPa SSE 11.9 km/h 11.9 km/h 44 % 0 mm 631.0 W/m2 CLR
12:34 -7.3 °C -14.2 °C 34740.4 hPa Calm     44 % 0 mm 636.0 W/m2 CLR
12:39 -7.3 °C -14.2 °C 34740.4 hPa WSW 18.2 km/h 18.2 km/h 44 % 0 mm 642.0 W/m2 CLR
12:44 -7 °C -14.1 °C 34740.4 hPa West 9 km/h 9 km/h 43 % 0 mm 649.0 W/m2 CLR
12:49 -7.3 °C -14.4 °C 34740.4 hPa Calm     43 % 0 mm 652.0 W/m2 CLR
12:54 -7.3 °C -14.6 °C 34740.4 hPa Calm     42 % 0 mm 659.0 W/m2 CLR
12:59 -7 °C -14.3 °C 34726.8 hPa Calm     42 % 0 mm 661.0 W/m2 CLR
13:04 -7.3 °C -14.6 °C 34726.8 hPa ESE 9 km/h 9 km/h 42 % 0 mm 666.0 W/m2 CLR
13:14 -6.7 °C -14.3 °C 34726.8 hPa SW 15.6 km/h 15.6 km/h 41 % 0 mm 673.0 W/m2 CLR
13:24 -7 °C -14.6 °C 34726.8 hPa West 9 km/h 9 km/h 41 % 0 mm 679.0 W/m2 CLR
13:29 -7 °C -14.6 °C 34716.7 hPa West 6 km/h 6 km/h 41 % 0 mm 682.0 W/m2 CLR
13:34 -6.7 °C -14.3 °C 34716.7 hPa Calm   1.8 km/h 41 % 0 mm 682.0 W/m2 CLR
13:39 -7 °C -14.7 °C 34716.7 hPa NNW 6 km/h 6 km/h 40 % 0 mm 686.0 W/m2 CLR
13:44 -7 °C -14.7 °C 34703.1 hPa Calm     40 % 0 mm 687.0 W/m2 CLR
13:49 -6.7 °C -14.7 °C 34703.1 hPa Calm   4.2 km/h 39 % 0 mm 686.0 W/m2 CLR
13:55 -6.7 °C -14.7 °C 34703.1 hPa North 9 km/h   39 % 0 mm 687.0 W/m2 CLR
14:00 -6.7 °C -14.7 °C 34703.1 hPa North 9 km/h 9 km/h 39 % 0 mm 686.0 W/m2 CLR
14:05 -6.7 °C -14.7 °C 34703.1 hPa Calm     39 % 0 mm 686.0 W/m2 CLR
14:10 -6.1 °C -14.1 °C 34703.1 hPa NNW 9 km/h   39 % 0 mm 684.0 W/m2 CLR
14:15 -6.1 °C -14.3 °C 34693 hPa Calm     38 % 0 mm 680.0 W/m2 CLR
14:20 -5.7 °C -14.1 °C 34693 hPa ESE 9 km/h   38 % 0 mm 680.0 W/m2 CLR
14:25 -5.7 °C -14.1 °C 34693 hPa Calm     38 % 0 mm 679.0 W/m2 CLR
14:30 -6.1 °C -14.1 °C 34682.8 hPa Calm     39 % 0 mm 673.0 W/m2 CLR
14:35 -5.7 °C -14.3 °C 34682.8 hPa Calm     37 % 0 mm 670.0 W/m2 CLR
14:40 -5.7 °C -14.3 °C 34682.8 hPa Calm     37 % 0 mm 668.0 W/m2 CLR
14:45 -5.7 °C -14.3 °C 34682.8 hPa NNW 9 km/h 9 km/h 37 % 0 mm 663.0 W/m2 CLR
14:50 -5.7 °C -14.3 °C 34682.8 hPa WNW 3.1 km/h   37 % 0 mm 657.0 W/m2 CLR
14:55 -5.7 °C -14.3 °C 34682.8 hPa WNW 9 km/h 9 km/h 37 % 0 mm 650.0 W/m2 CLR
15:00 -5.7 °C -14.3 °C 34669.3 hPa Calm   1.3 km/h 37 % 0 mm 643.0 W/m2 CLR
15:05 -5.7 °C -14.3 °C 34669.3 hPa NNW 28.5 km/h 28.5 km/h 37 % 0 mm 640.0 W/m2 CLR
15:10 -5.7 °C -14.3 °C 34669.3 hPa North 11.9 km/h 11.9 km/h 37 % 0 mm 633.0 W/m2 CLR
15:15 -5.7 °C -14.1 °C 34669.3 hPa North 9 km/h 9 km/h 38 % 0 mm 624.0 W/m2 CLR
15:20 -5.7 °C -14.3 °C 34669.3 hPa NW 15.6 km/h 15.6 km/h 37 % 0 mm 619.0 W/m2 CLR
15:30 -5.4 °C -14.2 °C 34669.3 hPa NNW 3.1 km/h   36 % 0 mm 603.0 W/m2 CLR
15:35 -5.7 °C -14.5 °C 34659.1 hPa WNW 9 km/h   36 % 0 mm 594.0 W/m2 CLR
15:40 -5.4 °C -14.2 °C 34659.1 hPa NW 7.7 km/h 7.7 km/h 36 % 0 mm 585.0 W/m2 CLR
15:45 -5.4 °C -14 °C 34659.1 hPa NNW 15.6 km/h 15.6 km/h 37 % 0 mm 578.0 W/m2 CLR
15:50 -5.4 °C -14.2 °C 34659.1 hPa WNW 17.9 km/h 17.9 km/h 36 % 0 mm 568.0 W/m2 CLR
15:55 -5.4 °C -14 °C 34659.1 hPa NW 11.9 km/h 13.7 km/h 37 % 0 mm 557.0 W/m2 CLR
16:00 -5.4 °C -14.2 °C 34645.6 hPa NW 3.1 km/h   36 % 0 mm 547.0 W/m2 CLR
16:10 -5.4 °C -14 °C 34645.6 hPa WNW 9 km/h 9 km/h 37 % 0 mm 527.0 W/m2 CLR
16:15 -5.4 °C -14 °C 34645.6 hPa NW 15.6 km/h 15.6 km/h 37 % 0 mm 517.0 W/m2 CLR
16:20 -5.4 °C -14.2 °C 34645.6 hPa NW 23.8 km/h 23.8 km/h 36 % 0 mm 504.0 W/m2 CLR
16:35 -5.4 °C -14 °C 34635.4 hPa NW 23.3 km/h 23.3 km/h 37 % 0 mm 469.0 W/m2 CLR
16:40 -5.4 °C -13.8 °C 34635.4 hPa WNW 11.9 km/h 11.9 km/h 38 % 0 mm 457.0 W/m2 CLR
16:45 -5.1 °C -13.3 °C 34635.4 hPa Calm     39 % 0 mm 441.0 W/m2 CLR
16:50 -5.1 °C -13.5 °C 34635.4 hPa NW 23.8 km/h 23.8 km/h 38 % 0 mm 431.0 W/m2 CLR
16:55 -5.1 °C -13.5 °C 34635.4 hPa NW 26.9 km/h 26.9 km/h 38 % 0 mm 417.0 W/m2 CLR
16:56 -5.1 °C -13.5 °C 34635.4 hPa NW 29.8 km/h 29.8 km/h 38 % 0 mm 413.0 W/m2 CLR
17:06 -5.4 °C -12.6 °C 34625.2 hPa North 20.9 km/h 20.9 km/h 44 % 0 mm 383.0 W/m2 CLR
17:11 -5.4 °C -11.8 °C 34635.4 hPa NE 20.9 km/h 20.9 km/h 48 % 0 mm 369.0 W/m2 CLR
17:16 -5.4 °C -11.5 °C 34635.4 hPa NNW 20.9 km/h 20.9 km/h 50 % 0 mm 352.0 W/m2 CLR
17:21 -5.4 °C -11.5 °C 34635.4 hPa NNW 20.9 km/h 20.9 km/h 50 % 0 mm 338.0 W/m2 CLR
17:26 -5.4 °C -11.5 °C 34635.4 hPa NNE 11.9 km/h 11.9 km/h 50 % 0 mm 323.0 W/m2 CLR
17:31 -5.4 °C -11.3 °C 34635.4 hPa NNE 11.9 km/h 11.9 km/h 51 % 0 mm 304.0 W/m2 CLR
17:36 -5.4 °C -11.3 °C 34625.2 hPa Calm     51 % 0 mm 292.0 W/m2 CLR
17:41 -5.4 °C -11.3 °C 34625.2 hPa North 15 km/h 15 km/h 51 % 0 mm 276.0 W/m2 CLR
17:46 -5.4 °C -11.3 °C 34625.2 hPa NNE 9 km/h 9 km/h 51 % 0 mm 262.0 W/m2 CLR
17:51 -5.7 °C -11.4 °C 34625.2 hPa ENE 15 km/h 15 km/h 52 % 0 mm 244.0 W/m2 CLR
17:56 -5.7 °C -11.4 °C 34625.2 hPa NE 23.3 km/h 23.3 km/h 52 % 0 mm 227.0 W/m2 CLR
18:01 -5.7 °C -11.3 °C 34625.2 hPa NE 15 km/h 15 km/h 53 % 0 mm 209.0 W/m2 CLR
18:06 -6.1 °C -11.3 °C 34625.2 hPa NE 10.3 km/h 10.3 km/h 55 % 0 mm 193.0 W/m2 CLR
18:11 -6.1 °C -11.3 °C 34625.2 hPa North 11.9 km/h 11.9 km/h 55 % 0 mm 172.0 W/m2 CLR
18:16 -6.1 °C -11.3 °C 34625.2 hPa North 9 km/h 9 km/h 55 % 0 mm 155.0 W/m2 CLR
18:21 -6.1 °C -11.1 °C 34625.2 hPa NNE 26.9 km/h 26.9 km/h 56 % 0 mm 139.0 W/m2 CLR
18:26 -6.3 °C -11.4 °C 34625.2 hPa NNE 15 km/h 15 km/h 56 % 0 mm 123.0 W/m2 CLR
18:31 -6.3 °C -11.3 °C 34625.2 hPa NNE 12.9 km/h 12.9 km/h 57 % 0 mm 109.0 W/m2 CLR
18:36 -6.3 °C -11.3 °C 34635.4 hPa NE 10.3 km/h 10.3 km/h 57 % 0 mm 91.0 W/m2 CLR
18:41 -6.3 °C -11.3 °C 34635.4 hPa NNE 12.9 km/h 12.9 km/h 57 % 0 mm 76.0 W/m2 FEW
18:46 -6.7 °C -11.4 °C 34625.2 hPa NNE 11.9 km/h 11.9 km/h 58 % 0 mm 60.0 W/m2 SCT
18:51 -6.7 °C -11.4 °C 34625.2 hPa North 11.9 km/h 11.9 km/h 58 % 0 mm 51.0 W/m2 SCT
18:56 -6.7 °C -11.4 °C 34635.4 hPa Calm     58 % 0 mm 40.0 W/m2 BKN
19:01 -7 °C -11.7 °C 34635.4 hPa Calm     58 % 0 mm 30.0 W/m2 BKN
19:06 -7 °C -11.6 °C 34635.4 hPa NNE 11.9 km/h 11.9 km/h 59 % 0 mm 23.0 W/m2 BKN
19:11 -7.3 °C -11.7 °C 34635.4 hPa Calm     60 % 0 mm 18.0 W/m2 BKN
19:16 -7.3 °C -11.7 °C 34635.4 hPa NE 6 km/h 6 km/h 60 % 0 mm 14.0 W/m2 BKN
19:21 -7.3 °C -11.7 °C 34635.4 hPa NE 11.9 km/h 11.9 km/h 60 % 0 mm 11.0 W/m2 BKN
19:26 -7.6 °C -11.8 °C 34635.4 hPa NNE 10.3 km/h 10.3 km/h 61 % 0 mm 7.0 W/m2 BKN
19:31 -7.9 °C -12.1 °C 34635.4 hPa ENE 20.8 km/h 20.8 km/h 61 % 0 mm 5.0 W/m2 OVC
19:36 -7.9 °C -12.3 °C 34635.4 hPa East 35.7 km/h 35.7 km/h 60 % 0 mm 0.0 W/m2 OVC
19:41 -7.6 °C -12 °C 34635.4 hPa SE 32.8 km/h 32.8 km/h 60 % 0 mm 0.0 W/m2 OVC
19:46 -7.3 °C -11.7 °C 34635.4 hPa ESE 36.2 km/h 36.2 km/h 60 % 0 mm 0.0 W/m2 CLR
19:51 -7.3 °C -11.6 °C 34635.4 hPa SE 29.8 km/h 29.8 km/h 61 % 0 mm 0.0 W/m2 CLR
19:56 -7.3 °C -11.6 °C 34635.4 hPa SSE 35.7 km/h 35.7 km/h 61 % 0 mm 0.0 W/m2 CLR
20:01 -7.3 °C -11.4 °C 34645.6 hPa South 29.8 km/h 29.8 km/h 62 % 0 mm 0.0 W/m2 CLR
20:06 -7.3 °C -11.4 °C 34645.6 hPa South 23.8 km/h 23.8 km/h 62 % 0 mm 0.0 W/m2 CLR
20:11 -7.6 °C -11.6 °C 34645.6 hPa SE 11.9 km/h 11.9 km/h 63 % 0 mm 0.0 W/m2 CLR
20:16 -7.6 °C -11.6 °C 34645.6 hPa SE 7.7 km/h 7.7 km/h 63 % 0 mm 0.0 W/m2 CLR
20:21 -7.9 °C -11.7 °C 34645.6 hPa SE 20.9 km/h 20.9 km/h 64 % 0 mm 0.0 W/m2 CLR
20:26 -7.9 °C -11.7 °C 34645.6 hPa SSE 17.9 km/h 17.9 km/h 64 % 0 mm 0.0 W/m2 CLR
20:31 -8.2 °C -12.1 °C 34645.6 hPa SSE 3.1 km/h 3.1 km/h 64 % 0 mm 0.0 W/m2 CLR
20:37 -8.5 °C -12.2 °C 34645.6 hPa SSE 10.3 km/h 10.3 km/h 65 % 0 mm 0.0 W/m2 CLR
20:42 -8.8 °C -12.5 °C 34659.1 hPa SSE 9 km/h 9 km/h 65 % 0 mm 0.0 W/m2 CLR
20:47 -9.1 °C -12.7 °C 34659.1 hPa Calm     66 % 0 mm 0.0 W/m2 CLR
20:52 -9.4 °C -12.9 °C 34659.1 hPa Calm   0.8 km/h 66 % 0 mm 0.0 W/m2 CLR
20:57 -9.8 °C -13.2 °C 34659.1 hPa SSE 11.9 km/h   66 % 0 mm 0.0 W/m2 CLR
21:02 -9.8 °C -13.1 °C 34659.1 hPa Calm     67 % 0 mm 0.0 W/m2 CLR
21:07 -10.1 °C -13.4 °C 34659.1 hPa Calm     67 % 0 mm 0.0 W/m2 CLR
21:12 -10.4 °C -13.7 °C 34659.1 hPa Calm     67 % 0 mm 0.0 W/m2 CLR
21:17 -10.4 °C -13.6 °C 34659.1 hPa Calm     68 % 0 mm 0.0 W/m2 CLR
21:22 -10.4 °C -13.7 °C 34659.1 hPa Calm     67 % 0 mm 0.0 W/m2 CLR
21:27 -10.7 °C -14 °C 34659.1 hPa Calm     67 % 0 mm 0.0 W/m2 CLR
21:32 -10.7 °C -13.8 °C 34659.1 hPa Calm     69 % 0 mm 0.0 W/m2 CLR
21:37 -10.7 °C -13.8 °C 34659.1 hPa Calm     69 % 0 mm 0.0 W/m2 CLR
21:42 -10.7 °C -13.7 °C 34659.1 hPa Calm     70 % 0 mm 0.0 W/m2 CLR
21:47 -10.7 °C -13.7 °C 34659.1 hPa Calm     70 % 0 mm 0.0 W/m2 CLR
21:52 -10.7 °C -13.5 °C 34659.1 hPa Calm     71 % 0 mm 0.0 W/m2 CLR
21:57 -10.7 °C -13.4 °C 34669.3 hPa Calm     72 % 0 mm 0.0 W/m2 CLR
22:02 -10.7 °C -13.4 °C 34669.3 hPa Calm     72 % 0 mm 0.0 W/m2 CLR
22:07 -11 °C -13.6 °C 34669.3 hPa Calm     73 % 0 mm 0.0 W/m2 CLR
22:12 -11 °C -13.7 °C 34669.3 hPa Calm     72 % 0 mm 0.0 W/m2 CLR
22:17 -11 °C -13.6 °C 34669.3 hPa Calm     73 % 0 mm 0.0 W/m2 CLR
22:22 -11.3 °C -13.9 °C 34669.3 hPa Calm     73 % 0 mm 0.0 W/m2 CLR
22:27 -11.3 °C -13.8 °C 34669.3 hPa Calm     74 % 0 mm 0.0 W/m2 CLR
22:32 -11.3 °C -13.8 °C 34669.3 hPa Calm     74 % 0 mm 0.0 W/m2 CLR
22:37 -11.3 °C -13.7 °C 34669.3 hPa Calm     75 % 0 mm 0.0 W/m2 CLR
22:42 -11.3 °C -13.6 °C 34669.3 hPa Calm     76 % 0 mm 0.0 W/m2 CLR
22:47 -11.3 °C -13.4 °C 34669.3 hPa Calm     77 % 0 mm 0.0 W/m2 CLR
22:52 -11.3 °C -13.4 °C 34682.8 hPa Calm     77 % 0 mm 0.0 W/m2 CLR
22:57 -11.3 °C -13.4 °C 34682.8 hPa Calm     77 % 0 mm 0.0 W/m2 CLR
23:02 -11.3 °C -13.4 °C 34682.8 hPa Calm     77 % 0 mm 0.0 W/m2 CLR
23:07 -11.6 °C -13.8 °C 34682.8 hPa Calm     77 % 0 mm 0.0 W/m2 CLR
23:12 -11.6 °C -13.8 °C 34682.8 hPa Calm     77 % 0 mm 0.0 W/m2 CLR
23:17 -11.6 °C -13.7 °C 34682.8 hPa Calm     78 % 0 mm 0.0 W/m2 CLR
23:22 -11.6 °C -13.6 °C 34682.8 hPa Calm     79 % 0 mm 0.0 W/m2 CLR
23:27 -11.6 °C -13.4 °C 34682.8 hPa Calm     81 % 0 mm 0.0 W/m2 CLR
23:32 -11.6 °C -13.4 °C 34682.8 hPa Calm     81 % 0 mm 0.0 W/m2 CLR
23:37 -11.9 °C -13.8 °C 34682.8 hPa Calm     80 % 0 mm 0.0 W/m2 CLR
23:42 -11.9 °C -13.8 °C 34682.8 hPa Calm     80 % 0 mm 0.0 W/m2 CLR
23:47 -11.9 °C -13.8 °C 34682.8 hPa Calm     79 % 0 mm 0.0 W/m2 CLR
23:52 -12.2 °C -14.1 °C 34693 hPa Calm     80 % 0 mm 0.0 W/m2 CLR
23:57 -12.2 °C -14.1 °C 34693 hPa Calm     80 % 0 mm 0.0 W/m2 CLR
Lo Temps de Massalio
Compliments of Weather Underground - 1.25 mb